Time;durP1;ratioP1;P1;durP2;ratioP2;P2;SDS_P1;SDS_P2;PMS_P1;PMS_P2;Temp;Humidity;BMP_temperature;BMP_pressure;BME280_temperature;BME280_humidity;BME280_pressure;Samples;Min_cycle;Max_cycle;Signal;HPM_P1;HPM_P2
2022/10/13 00:01:47;;;;;;;16.80;10.30;;;;;;;;;;5013214;28;20217;-64
2022/10/13 00:04:12;;;;;;;24.23;10.60;;;;;;;;;;5013863;28;20262;-64
2022/10/13 00:06:37;;;;;;;19.17;9.60;;;;;;;;;;5014348;28;20220;-64
2022/10/13 00:09:03;;;;;;;19.23;10.23;;;;;;;;;;5013021;28;20674;-64
2022/10/13 00:11:28;;;;;;;20.80;10.32;;;;;;;;;;5014010;28;20216;-64
2022/10/13 00:13:55;;;;;;;19.27;10.25;;;;;;;;;;5013811;28;20219;-64
2022/10/13 00:16:20;;;;;;;16.20;9.90;;;;;;;;;;5012647;28;20708;-64
2022/10/13 00:18:46;;;;;;;17.83;10.57;;;;;;;;;;5013971;28;20295;-64
2022/10/13 00:21:12;;;;;;;16.95;9.60;;;;;;;;;;5012196;28;20220;-64
2022/10/13 00:23:37;;;;;;;23.48;10.35;;;;;;;;;;5013014;28;20223;-64
2022/10/13 00:26:03;;;;;;;18.13;9.98;;;;;;;;;;5013423;28;20688;-64
2022/10/13 00:28:28;;;;;;;18.13;9.88;;;;;;;;;;5013700;28;20236;-64
2022/10/13 00:30:54;;;;;;;19.10;10.27;;;;;;;;;;5012742;28;20688;-64
2022/10/13 00:33:19;;;;;;;16.70;9.85;;;;;;;;;;5013202;28;20213;-64
2022/10/13 00:35:45;;;;;;;19.20;9.90;;;;;;;;;;5013697;28;20227;-64
2022/10/13 00:38:10;;;;;;;15.95;10.10;;;;;;;;;;5012418;28;20219;-64
2022/10/13 00:40:43;;;;;;;18.98;10.30;;;;;;;;;;5013313;28;20205;-64
2022/10/13 00:43:13;;;;;;;21.77;11.27;;;;;;;;;;5006676;28;20247;-64
2022/10/13 00:45:38;;;;;;;21.65;10.75;;;;;;;;;;5011843;28;20759;-64
2022/10/13 00:48:04;;;;;;;19.65;11.05;;;;;;;;;;5012977;28;20296;-64
2022/10/13 00:50:33;;;;;;;20.98;10.65;;;;;;;;;;5012599;28;20246;-65
2022/10/13 00:52:58;;;;;;;17.27;10.48;;;;;;;;;;5012234;28;20208;-64
2022/10/13 00:55:25;;;;;;;17.10;10.02;;;;;;;;;;5012807;28;20217;-64
2022/10/13 00:57:53;;;;;;;21.45;11.35;;;;;;;;;;5012603;28;20216;-64
2022/10/13 01:00:19;;;;;;;20.35;10.35;;;;;;;;;;5011278;28;20231;-64
2022/10/13 01:02:44;;;;;;;17.58;10.32;;;;;;;;;;5013075;28;20213;-65
2022/10/13 01:05:10;;;;;;;18.15;10.98;;;;;;;;;;5011853;28;20205;-64
2022/10/13 01:07:35;;;;;;;17.15;10.70;;;;;;;;;;5013192;28;20593;-65
2022/10/13 01:10:01;;;;;;;17.52;10.60;;;;;;;;;;5012626;28;20235;-65
2022/10/13 01:12:27;;;;;;;20.80;11.73;;;;;;;;;;5010914;28;20204;-64
2022/10/13 01:14:52;;;;;;;22.45;11.40;;;;;;;;;;5012910;28;20216;-64
2022/10/13 01:17:19;;;;;;;17.08;10.52;;;;;;;;;;5012371;28;20718;-64
2022/10/13 01:20:03;;;;;;;19.50;11.45;;;;;;;;;;5027188;28;20582;-64
2022/10/13 01:22:29;;;;;;;17.75;10.98;;;;;;;;;;5011387;28;20212;-64
2022/10/13 01:25:08;;;;;;;19.33;12.13;;;;;;;;;;5012773;28;20220;-64
2022/10/13 01:27:33;;;;;;;18.17;11.02;;;;;;;;;;5011667;28;20287;-64
2022/10/13 01:30:05;;;;;;;16.55;10.65;;;;;;;;;;5012412;28;20363;-64
2022/10/13 01:32:35;;;;;;;18.15;10.68;;;;;;;;;;5010320;28;20278;-64
2022/10/13 01:38:05;;;;;;;18.35;10.35;;;;;;;;;;5011731;28;20249;-64
2022/10/13 01:40:32;;;;;;;21.73;11.07;;;;;;;;;;5011024;28;20222;-64
2022/10/13 01:43:00;;;;;;;17.50;11.07;;;;;;;;;;5011197;28;20795;-65
2022/10/13 01:45:28;;;;;;;19.67;10.75;;;;;;;;;;5010693;28;20711;-65
2022/10/13 01:47:53;;;;;;;18.00;10.80;;;;;;;;;;5010703;28;20217;-65
2022/10/13 01:50:19;;;;;;;15.32;10.65;;;;;;;;;;5012065;28;20235;-64
2022/10/13 01:52:44;;;;;;;18.50;11.45;;;;;;;;;;5012380;28;20213;-65
2022/10/13 01:55:10;;;;;;;17.83;11.02;;;;;;;;;;5011542;28;20212;-65
2022/10/13 01:57:36;;;;;;;16.70;11.43;;;;;;;;;;5014466;28;20659;-64
2022/10/13 02:00:04;;;;;;;16.83;10.48;;;;;;;;;;5015780;28;20224;-64
2022/10/13 02:02:32;;;;;;;20.60;11.45;;;;;;;;;;5015847;28;20707;-64
2022/10/13 02:05:02;;;;;;;15.45;10.73;;;;;;;;;;5016162;28;20278;-66
2022/10/13 02:07:29;;;;;;;20.52;10.98;;;;;;;;;;5003155;28;20578;-65
2022/10/13 02:10:04;;;;;;;16.05;10.52;;;;;;;;;;5004675;28;20224;-65
2022/10/13 02:12:31;;;;;;;19.88;11.05;;;;;;;;;;5004537;28;20278;-65
2022/10/13 02:14:56;;;;;;;19.98;11.48;;;;;;;;;;5004596;28;20236;-65
2022/10/13 02:17:22;;;;;;;16.35;11.02;;;;;;;;;;5004419;28;20310;-64
2022/10/13 02:19:47;;;;;;;18.98;11.30;;;;;;;;;;5005113;28;20797;-64
2022/10/13 02:22:12;;;;;;;19.30;11.15;;;;;;;;;;4996818;28;20216;-64
2022/10/13 02:24:37;;;;;;;18.85;10.98;;;;;;;;;;4997988;28;20359;-64
2022/10/13 02:27:04;;;;;;;17.70;11.18;;;;;;;;;;4997245;28;20231;-64
2022/10/13 02:29:29;;;;;;;19.98;10.70;;;;;;;;;;5004648;28;20220;-64
2022/10/13 02:31:54;;;;;;;17.30;10.85;;;;;;;;;;5005953;28;20212;-64
2022/10/13 02:34:20;;;;;;;21.45;12.07;;;;;;;;;;5005188;28;20224;-65
2022/10/13 02:36:45;;;;;;;18.63;11.40;;;;;;;;;;5005669;28;20279;-65
2022/10/13 02:39:10;;;;;;;17.33;11.77;;;;;;;;;;5005564;28;20220;-64
2022/10/13 02:41:36;;;;;;;16.48;10.18;;;;;;;;;;5005745;28;20220;-64
2022/10/13 02:44:01;;;;;;;19.80;11.52;;;;;;;;;;5000478;28;20227;-64
2022/10/13 02:46:26;;;;;;;21.65;12.35;;;;;;;;;;4997596;28;20225;-64
2022/10/13 02:48:51;;;;;;;19.88;11.27;;;;;;;;;;4997212;28;20799;-64
2022/10/13 02:51:17;;;;;;;20.02;10.88;;;;;;;;;;5001799;28;20224;-64
2022/10/13 02:53:42;;;;;;;18.48;10.98;;;;;;;;;;5005493;28;20798;-65
2022/10/13 02:56:07;;;;;;;16.13;11.05;;;;;;;;;;5005457;28;20209;-64
2022/10/13 02:58:33;;;;;;;19.02;10.13;;;;;;;;;;5005176;28;20259;-64
2022/10/13 03:01:05;;;;;;;19.58;11.50;;;;;;;;;;5005442;28;20263;-65
2022/10/13 03:03:30;;;;;;;20.90;11.25;;;;;;;;;;5005197;28;20236;-64
2022/10/13 03:05:56;;;;;;;19.33;10.48;;;;;;;;;;5002499;28;20225;-64
2022/10/13 03:08:21;;;;;;;16.42;11.18;;;;;;;;;;5015256;28;20565;-64
2022/10/13 03:10:46;;;;;;;19.95;11.13;;;;;;;;;;5034944;28;20274;-64
2022/10/13 03:13:12;;;;;;;21.50;12.38;;;;;;;;;;5033822;28;20243;-64
2022/10/13 03:15:37;;;;;;;21.50;12.55;;;;;;;;;;5021138;28;20312;-65
2022/10/13 03:18:02;;;;;;;21.80;11.98;;;;;;;;;;5013853;28;20258;-65
2022/10/13 03:20:27;;;;;;;19.48;11.40;;;;;;;;;;5015095;28;20570;-64
2022/10/13 03:22:52;;;;;;;17.45;10.95;;;;;;;;;;5014825;28;20295;-65
2022/10/13 03:25:18;;;;;;;21.27;11.07;;;;;;;;;;5014000;28;20595;-64
2022/10/13 03:27:43;;;;;;;20.65;11.20;;;;;;;;;;5014875;28;20219;-64
2022/10/13 03:30:09;;;;;;;16.67;11.15;;;;;;;;;;4995874;28;20605;-64
2022/10/13 03:32:34;;;;;;;20.30;10.88;;;;;;;;;;4996546;28;20216;-64
2022/10/13 03:34:59;;;;;;;19.75;11.73;;;;;;;;;;5000055;28;20217;-64
2022/10/13 03:37:25;;;;;;;17.95;11.00;;;;;;;;;;5004627;28;20355;-64
2022/10/13 03:39:50;;;;;;;19.25;11.70;;;;;;;;;;5002954;28;20228;-65
2022/10/13 03:42:15;;;;;;;19.52;11.05;;;;;;;;;;5004169;28;20197;-64
2022/10/13 03:44:41;;;;;;;18.02;11.57;;;;;;;;;;5004578;28;20213;-65
2022/10/13 03:47:06;;;;;;;17.08;11.23;;;;;;;;;;5004049;28;20227;-65
2022/10/13 03:49:31;;;;;;;20.13;11.60;;;;;;;;;;5003564;28;20358;-64
2022/10/13 03:51:57;;;;;;;18.23;11.10;;;;;;;;;;4997314;28;20204;-64
2022/10/13 03:54:23;;;;;;;18.65;12.57;;;;;;;;;;4995878;28;20277;-64
2022/10/13 03:56:48;;;;;;;17.95;10.93;;;;;;;;;;4997752;28;20255;-64
2022/10/13 03:59:15;;;;;;;15.85;10.30;;;;;;;;;;5003836;28;20704;-64
2022/10/13 04:01:41;;;;;;;16.55;11.65;;;;;;;;;;5003987;28;20304;-64
2022/10/13 04:04:08;;;;;;;18.23;11.10;;;;;;;;;;5003787;28;20788;-64
2022/10/13 04:06:33;;;;;;;17.35;11.40;;;;;;;;;;5002888;28;20683;-65
2022/10/13 04:08:58;;;;;;;19.73;11.60;;;;;;;;;;5004193;28;20252;-64
2022/10/13 04:11:23;;;;;;;19.52;11.85;;;;;;;;;;5002521;28;20567;-64
2022/10/13 04:13:49;;;;;;;18.08;11.02;;;;;;;;;;4998495;28;20311;-65
2022/10/13 04:16:15;;;;;;;21.25;11.82;;;;;;;;;;4995271;28;20290;-64
2022/10/13 04:18:40;;;;;;;19.75;11.57;;;;;;;;;;4995939;28;20223;-64
2022/10/13 04:21:06;;;;;;;17.45;10.52;;;;;;;;;;5001389;28;20224;-64
2022/10/13 04:23:32;;;;;;;17.00;10.90;;;;;;;;;;5003555;28;20208;-65
2022/10/13 04:25:57;;;;;;;19.73;11.57;;;;;;;;;;5004396;28;20220;-64
2022/10/13 04:28:22;;;;;;;17.83;11.25;;;;;;;;;;5002746;28;20243;-65
2022/10/13 04:30:47;;;;;;;20.58;11.80;;;;;;;;;;5003892;28;20328;-65
2022/10/13 04:33:13;;;;;;;22.00;12.60;;;;;;;;;;5003125;28;20286;-64
2022/10/13 04:35:39;;;;;;;18.75;11.63;;;;;;;;;;4999902;28;20790;-64
2022/10/13 04:38:04;;;;;;;20.27;11.18;;;;;;;;;;4995789;28;20492;-64
2022/10/13 04:40:29;;;;;;;20.65;11.73;;;;;;;;;;4995301;28;20332;-64
2022/10/13 04:42:55;;;;;;;20.13;11.80;;;;;;;;;;4998653;28;20243;-65
2022/10/13 04:45:20;;;;;;;18.80;11.82;;;;;;;;;;5003267;28;20220;-65
2022/10/13 04:47:46;;;;;;;24.27;11.68;;;;;;;;;;5003933;28;20679;-65
2022/10/13 04:50:11;;;;;;;22.40;11.80;;;;;;;;;;5002253;28;20233;-65
2022/10/13 04:52:37;;;;;;;18.70;11.23;;;;;;;;;;5003550;28;20223;-65
2022/10/13 04:55:02;;;;;;;20.15;11.32;;;;;;;;;;5002946;28;20212;-64
2022/10/13 04:57:27;;;;;;;22.77;12.10;;;;;;;;;;5002188;28;20758;-65
2022/10/13 04:59:53;;;;;;;19.35;11.73;;;;;;;;;;4995824;28;20388;-64
2022/10/13 05:02:18;;;;;;;23.58;11.30;;;;;;;;;;4994559;28;20220;-64
2022/10/13 05:04:43;;;;;;;22.08;12.60;;;;;;;;;;4994133;28;20227;-64
2022/10/13 05:07:09;;;;;;;20.80;12.18;;;;;;;;;;5002277;28;20220;-65
2022/10/13 05:09:34;;;;;;;23.40;13.60;;;;;;;;;;4999758;28;20427;-63
2022/10/13 05:11:59;;;;;;;16.10;11.32;;;;;;;;;;5000184;28;20208;-64
2022/10/13 05:14:24;;;;;;;19.55;11.07;;;;;;;;;;5002730;28;20209;-63
2022/10/13 05:16:49;;;;;;;16.92;10.70;;;;;;;;;;5002330;28;20219;-62
2022/10/13 05:19:15;;;;;;;19.25;11.38;;;;;;;;;;5001352;28;20754;-64
2022/10/13 05:21:40;;;;;;;16.50;10.52;;;;;;;;;;4995357;28;20781;-64
2022/10/13 05:24:06;;;;;;;22.88;11.85;;;;;;;;;;4993394;28;20204;-63
2022/10/13 05:26:32;;;;;;;23.50;12.55;;;;;;;;;;4992894;28;20219;-64
2022/10/13 05:28:58;;;;;;;21.70;11.40;;;;;;;;;;4998617;28;20215;-64
2022/10/13 05:31:23;;;;;;;21.60;11.50;;;;;;;;;;5000699;28;20220;-64
2022/10/13 05:33:48;;;;;;;17.30;10.85;;;;;;;;;;5001638;28;20726;-64
2022/10/13 05:36:15;;;;;;;21.40;10.85;;;;;;;;;;4999004;28;20223;-64
2022/10/13 05:38:40;;;;;;;17.88;10.32;;;;;;;;;;5000770;28;20254;-64
2022/10/13 05:41:06;;;;;;;18.90;11.30;;;;;;;;;;5000616;28;20305;-63
2022/10/13 05:43:32;;;;;;;21.65;10.88;;;;;;;;;;4996806;28;20279;-63
2022/10/13 05:45:58;;;;;;;18.67;10.63;;;;;;;;;;4993403;28;20314;-63
2022/10/13 05:48:23;;;;;;;21.85;11.48;;;;;;;;;;4991212;28;20213;-64
2022/10/13 05:50:48;;;;;;;18.52;11.65;;;;;;;;;;4997142;28;20216;-64
2022/10/13 05:53:13;;;;;;;21.85;11.43;;;;;;;;;;5000682;28;20216;-62
2022/10/13 05:55:39;;;;;;;20.17;10.55;;;;;;;;;;5001613;28;20220;-65
2022/10/13 05:58:04;;;;;;;20.50;11.20;;;;;;;;;;5001226;28;20208;-64
2022/10/13 06:00:29;;;;;;;21.67;11.80;;;;;;;;;;5005531;28;20224;-64
2022/10/13 06:02:57;;;;;;;23.13;11.35;;;;;;;;;;5015646;28;20203;-64
2022/10/13 06:05:22;;;;;;;20.75;11.63;;;;;;;;;;5014381;28;20207;-64
2022/10/13 06:07:48;;;;;;;19.52;11.30;;;;;;;;;;5014620;28;20206;-64
2022/10/13 06:10:13;;;;;;;23.02;12.15;;;;;;;;;;5013840;28;20216;-64
2022/10/13 06:12:38;;;;;;;19.48;11.52;;;;;;;;;;5011456;28;20281;-64
2022/10/13 06:15:04;;;;;;;21.15;11.00;;;;;;;;;;5011760;28;20201;-64
2022/10/13 06:17:29;;;;;;;20.20;10.45;;;;;;;;;;5011667;28;20220;-64
2022/10/13 06:19:54;;;;;;;20.65;11.25;;;;;;;;;;5011606;28;20201;-64
2022/10/13 06:22:20;;;;;;;19.35;11.45;;;;;;;;;;5013861;28;20671;-65
2022/10/13 06:24:47;;;;;;;18.75;9.40;;;;;;;;;;5008213;28;20215;-64
2022/10/13 06:27:12;;;;;;;21.17;10.82;;;;;;;;;;5006035;28;20571;-64
2022/10/13 06:29:37;;;;;;;20.38;11.13;;;;;;;;;;5006159;28;20229;-64
2022/10/13 06:32:03;;;;;;;21.42;11.60;;;;;;;;;;5006414;28;20299;-64
2022/10/13 06:34:28;;;;;;;20.25;10.48;;;;;;;;;;5007028;28;20212;-64
2022/10/13 06:36:54;;;;;;;20.02;11.00;;;;;;;;;;5005416;28;20220;-65
2022/10/13 06:39:19;;;;;;;18.38;11.45;;;;;;;;;;5005577;28;20295;-62
2022/10/13 06:41:45;;;;;;;19.15;11.05;;;;;;;;;;5005721;28;20229;-62
2022/10/13 06:44:10;;;;;;;17.80;11.02;;;;;;;;;;5008551;28;20732;-62
2022/10/13 06:46:35;;;;;;;17.48;10.15;;;;;;;;;;5010261;28;20220;-62
2022/10/13 06:49:00;;;;;;;21.83;10.73;;;;;;;;;;5019331;28;20713;-62
2022/10/13 06:51:26;;;;;;;19.67;10.80;;;;;;;;;;5029652;28;20242;-62
2022/10/13 06:53:51;;;;;;;22.35;11.88;;;;;;;;;;5029953;28;20216;-62
2022/10/13 06:56:16;;;;;;;23.67;11.20;;;;;;;;;;5018067;28;20236;-62
2022/10/13 06:58:42;;;;;;;21.13;11.13;;;;;;;;;;5010049;28;20263;-62
2022/10/13 07:01:08;;;;;;;19.75;10.75;;;;;;;;;;5011317;28;20240;-62
2022/10/13 07:03:33;;;;;;;20.77;11.55;;;;;;;;;;5007642;28;20221;-62
2022/10/13 07:06:01;;;;;;;19.23;11.00;;;;;;;;;;5009584;28;20613;-63
2022/10/13 07:08:26;;;;;;;20.60;10.95;;;;;;;;;;5007619;28;20205;-62
2022/10/13 07:10:51;;;;;;;17.35;10.68;;;;;;;;;;5008501;28;20857;-62
2022/10/13 07:13:16;;;;;;;19.20;10.75;;;;;;;;;;5006818;28;20208;-63
2022/10/13 07:15:42;;;;;;;19.52;10.95;;;;;;;;;;5008445;28;20238;-62
2022/10/13 07:18:07;;;;;;;18.65;10.73;;;;;;;;;;5008450;28;20226;-63
2022/10/13 07:20:32;;;;;;;16.20;10.18;;;;;;;;;;5005999;28;20299;-62
2022/10/13 07:22:58;;;;;;;21.38;10.55;;;;;;;;;;5008976;28;20217;-62
2022/10/13 07:25:23;;;;;;;16.88;10.95;;;;;;;;;;5007828;28;20212;-63
2022/10/13 07:27:48;;;;;;;19.25;10.90;;;;;;;;;;5008382;28;20256;-62
2022/10/13 07:30:14;;;;;;;19.52;10.45;;;;;;;;;;5008126;28;20257;-62
2022/10/13 07:32:40;;;;;;;17.35;10.68;;;;;;;;;;5008068;28;20244;-62
2022/10/13 07:35:06;;;;;;;18.73;11.32;;;;;;;;;;5012176;28;20203;-63
2022/10/13 07:37:31;;;;;;;20.90;11.50;;;;;;;;;;5009322;28;20235;-63
2022/10/13 07:39:59;;;;;;;21.48;11.65;;;;;;;;;;5008679;28;20220;-63
2022/10/13 07:42:24;;;;;;;21.20;11.43;;;;;;;;;;5007100;28;20232;-62
2022/10/13 07:44:49;;;;;;;20.20;11.10;;;;;;;;;;5009676;28;20236;-63
2022/10/13 07:47:14;;;;;;;19.95;10.63;;;;;;;;;;5008690;28;20216;-63
2022/10/13 07:49:40;;;;;;;21.30;11.23;;;;;;;;;;5005768;28;20715;-63
2022/10/13 07:52:05;;;;;;;20.30;11.55;;;;;;;;;;5009702;28;20219;-63
2022/10/13 07:54:30;;;;;;;24.33;11.75;;;;;;;;;;5007360;28;20212;-62
2022/10/13 07:56:56;;;;;;;18.15;10.90;;;;;;;;;;5013453;28;20287;-63
2022/10/13 07:59:21;;;;;;;19.90;11.38;;;;;;;;;;5016151;28;20259;-62
2022/10/13 08:01:47;;;;;;;23.65;12.38;;;;;;;;;;5029405;28;20257;-63
2022/10/13 08:04:12;;;;;;;28.90;13.10;;;;;;;;;;5029162;28;20350;-63
2022/10/13 08:06:37;;;;;;;21.17;13.27;;;;;;;;;;5028697;28;20211;-63
2022/10/13 08:09:03;;;;;;;21.50;12.15;;;;;;;;;;5028061;28;20208;-62
2022/10/13 08:11:28;;;;;;;24.58;12.70;;;;;;;;;;5027986;28;20789;-62
2022/10/13 08:13:54;;;;;;;20.38;12.10;;;;;;;;;;5008667;28;20727;-63
2022/10/13 08:16:20;;;;;;;21.23;11.93;;;;;;;;;;5008358;28;20214;-63
2022/10/13 08:18:45;;;;;;;21.25;12.30;;;;;;;;;;5006748;28;20297;-63
2022/10/13 08:21:11;;;;;;;20.20;12.10;;;;;;;;;;5007476;28;20366;-62
2022/10/13 08:23:37;;;;;;;20.15;12.32;;;;;;;;;;5006749;28;20204;-63
2022/10/13 08:26:02;;;;;;;23.58;12.57;;;;;;;;;;5007973;28;20220;-62
2022/10/13 08:28:27;;;;;;;25.60;12.90;;;;;;;;;;5008031;28;20219;-62
2022/10/13 08:30:54;;;;;;;22.08;12.25;;;;;;;;;;5008366;28;20808;-62
2022/10/13 08:33:19;;;;;;;18.60;12.05;;;;;;;;;;5008215;28;20216;-63
2022/10/13 08:35:44;;;;;;;23.75;12.45;;;;;;;;;;5007991;28;20243;-63
2022/10/13 08:38:10;;;;;;;23.15;12.57;;;;;;;;;;5005987;28;20237;-63
2022/10/13 08:40:36;;;;;;;22.73;12.55;;;;;;;;;;5007450;28;20238;-63
2022/10/13 08:43:04;;;;;;;21.02;12.48;;;;;;;;;;5006937;28;20224;-63
2022/10/13 08:45:29;;;;;;;24.15;13.05;;;;;;;;;;5007661;28;20323;-63
2022/10/13 08:47:58;;;;;;;20.95;12.25;;;;;;;;;;5007955;28;20212;-63
2022/10/13 08:50:24;;;;;;;20.20;12.43;;;;;;;;;;5006628;28;20305;-63
2022/10/13 08:52:54;;;;;;;23.80;12.35;;;;;;;;;;5006097;28;20296;-63
2022/10/13 08:55:27;;;;;;;18.15;12.00;;;;;;;;;;5006747;28;20471;-63
2022/10/13 08:57:52;;;;;;;19.90;11.40;;;;;;;;;;5007014;28;20304;-62
2022/10/13 09:00:17;;;;;;;18.30;11.60;;;;;;;;;;5005510;28;20311;-62
2022/10/13 09:02:43;;;;;;;22.02;11.88;;;;;;;;;;5007418;28;20276;-63
2022/10/13 09:05:11;;;;;;;20.25;12.20;;;;;;;;;;5007490;28;20205;-62
2022/10/13 09:07:36;;;;;;;20.98;11.75;;;;;;;;;;5002495;28;20260;-61
2022/10/13 09:10:01;;;;;;;19.88;12.45;;;;;;;;;;5004332;28;20803;-62
2022/10/13 09:12:27;;;;;;;21.67;12.23;;;;;;;;;;5009289;28;20176;-62
2022/10/13 09:14:58;;;;;;;20.05;11.85;;;;;;;;;;5009340;28;20196;-61
2022/10/13 09:17:25;;;;;;;21.35;12.75;;;;;;;;;;5007614;28;20248;-61
2022/10/13 09:19:57;;;;;;;23.40;12.27;;;;;;;;;;5008392;28;20220;-61
2022/10/13 09:22:23;;;;;;;21.13;11.10;;;;;;;;;;5007468;28;20208;-61
2022/10/13 09:25:03;;;;;;;21.52;11.50;;;;;;;;;;5006555;28;20803;-61
2022/10/13 09:27:28;;;;;;;22.92;12.30;;;;;;;;;;5005835;28;20204;-61
2022/10/13 09:29:53;;;;;;;21.95;11.80;;;;;;;;;;5006238;28;20302;-61
2022/10/13 09:32:19;;;;;;;20.20;11.63;;;;;;;;;;5006341;28;20223;-61
2022/10/13 09:34:45;;;;;;;21.67;11.07;;;;;;;;;;5007110;28;20216;-61
2022/10/13 09:37:17;;;;;;;19.02;10.30;;;;;;;;;;5005381;28;20208;-61
2022/10/13 09:39:43;;;;;;;21.13;11.00;;;;;;;;;;5005005;28;20205;-61
2022/10/13 09:42:17;;;;;;;18.38;10.98;;;;;;;;;;5006230;28;20220;-61
2022/10/13 09:44:42;;;;;;;22.23;11.52;;;;;;;;;;5005996;28;20224;-62
2022/10/13 09:47:13;;;;;;;24.52;10.93;;;;;;;;;;5006382;28;20251;-62
2022/10/13 09:49:39;;;;;;;20.33;11.20;;;;;;;;;;5005684;28;20246;-62
2022/10/13 09:52:11;;;;;;;21.25;11.93;;;;;;;;;;5006586;28;20777;-62
2022/10/13 09:54:39;;;;;;;20.10;11.32;;;;;;;;;;5007379;28;20209;-62
2022/10/13 09:57:08;;;;;;;18.30;9.88;;;;;;;;;;5006986;28;20303;-62
2022/10/13 09:59:35;;;;;;;18.73;9.45;;;;;;;;;;5006496;28;20256;-62
2022/10/13 10:02:14;;;;;;;19.25;10.60;;;;;;;;;;5005516;28;20733;-62
2022/10/13 10:04:42;;;;;;;21.63;10.02;;;;;;;;;;5006689;28;20311;-62
2022/10/13 10:07:15;;;;;;;20.35;9.90;;;;;;;;;;5006594;28;20738;-61
2022/10/13 10:09:43;;;;;;;20.52;10.27;;;;;;;;;;5005202;28;20213;-62
2022/10/13 10:12:11;;;;;;;21.50;10.05;;;;;;;;;;5007171;28;20277;-62
2022/10/13 10:14:37;;;;;;;21.25;10.70;;;;;;;;;;5006297;28;20196;-61
2022/10/13 10:17:03;;;;;;;22.17;10.57;;;;;;;;;;5006795;28;20218;-62
2022/10/13 10:19:32;;;;;;;20.25;10.60;;;;;;;;;;5011033;28;20211;-61
2022/10/13 10:22:02;;;;;;;22.17;10.68;;;;;;;;;;5008918;28;20212;-62
2022/10/13 10:24:28;;;;;;;22.80;10.20;;;;;;;;;;5009894;28;20573;-62
2022/10/13 10:26:54;;;;;;;20.83;11.02;;;;;;;;;;5010702;28;20212;-61
2022/10/13 10:29:20;;;;;;;20.55;10.35;;;;;;;;;;5009467;28;20219;-61
2022/10/13 10:31:49;;;;;;;19.23;10.70;;;;;;;;;;5010319;28;20215;-62
2022/10/13 10:34:26;;;;;;;19.25;10.52;;;;;;;;;;5008345;28;20232;-61
2022/10/13 10:37:10;;;;;;;22.33;10.23;;;;;;;;;;5010467;28;20212;-62
2022/10/13 10:39:37;;;;;;;23.50;11.32;;;;;;;;;;5008923;28;20278;-61
2022/10/13 10:42:06;;;;;;;21.30;10.18;;;;;;;;;;5009673;28;20291;-62
2022/10/13 10:44:33;;;;;;;21.58;11.05;;;;;;;;;;5009053;28;20231;-61
2022/10/13 10:47:01;;;;;;;20.45;10.38;;;;;;;;;;4993975;28;20967;-63
2022/10/13 10:49:30;;;;;;;20.25;10.95;;;;;;;;;;4995260;28;20220;-64
2022/10/13 10:51:55;;;;;;;20.15;10.88;;;;;;;;;;4997741;28;20226;-64
2022/10/13 10:54:24;;;;;;;22.52;10.73;;;;;;;;;;5000026;28;20231;-64
2022/10/13 10:57:11;;;;;;;19.60;11.38;;;;;;;;;;5003740;28;20864;-64
2022/10/13 11:00:03;;;;;;;18.45;10.35;;;;;;;;;;5002517;28;20313;-63
2022/10/13 11:02:38;;;;;;;17.88;10.43;;;;;;;;;;5003448;28;20204;-64
2022/10/13 11:05:04;;;;;;;20.48;10.45;;;;;;;;;;5001745;28;20239;-64
2022/10/13 11:07:29;;;;;;;18.45;10.93;;;;;;;;;;5004851;28;20248;-63
2022/10/13 11:09:56;;;;;;;22.25;10.00;;;;;;;;;;5001539;28;20311;-62
2022/10/13 11:12:21;;;;;;;23.45;11.32;;;;;;;;;;4994539;28;20225;-62
2022/10/13 11:14:47;;;;;;;21.08;10.02;;;;;;;;;;4992686;28;20212;-63
2022/10/13 11:17:13;;;;;;;20.27;10.32;;;;;;;;;;4997887;28;20244;-63
2022/10/13 11:19:38;;;;;;;18.75;10.27;;;;;;;;;;5004214;28;20204;-62
2022/10/13 11:22:04;;;;;;;21.70;9.90;;;;;;;;;;5003642;28;20352;-64
2022/10/13 11:24:30;;;;;;;18.38;10.40;;;;;;;;;;5001028;28;20546;-64
2022/10/13 11:26:56;;;;;;;17.60;10.95;;;;;;;;;;5003818;28;20217;-64
2022/10/13 11:29:41;;;;;;;20.95;10.38;;;;;;;;;;5002243;28;20220;-64
2022/10/13 11:32:10;;;;;;;17.13;10.63;;;;;;;;;;5001712;28;20216;-64
2022/10/13 11:34:35;;;;;;;18.17;10.75;;;;;;;;;;4995219;28;20208;-64
2022/10/13 11:37:01;;;;;;;19.98;11.38;;;;;;;;;;4995914;28;20220;-64
2022/10/13 11:39:34;;;;;;;19.08;11.75;;;;;;;;;;4998700;28;20208;-64
2022/10/13 11:42:02;;;;;;;18.30;11.23;;;;;;;;;;5002083;28;20219;-64
2022/10/13 11:44:33;;;;;;;23.15;12.43;;;;;;;;;;5002821;28;20232;-64
2022/10/13 11:47:01;;;;;;;27.05;13.45;;;;;;;;;;5001729;28;20286;-64
2022/10/13 11:49:42;;;;;;;23.20;12.45;;;;;;;;;;5002031;28;20208;-64
2022/10/13 11:52:17;;;;;;;21.55;12.82;;;;;;;;;;5001094;28;20226;-64
2022/10/13 11:54:46;;;;;;;21.05;13.20;;;;;;;;;;5000737;28;20219;-62
2022/10/13 11:57:19;;;;;;;24.15;13.35;;;;;;;;;;4995293;28;20501;-62
2022/10/13 11:59:45;;;;;;;22.25;12.80;;;;;;;;;;4995025;28;20243;-62
2022/10/13 12:02:10;;;;;;;20.80;11.77;;;;;;;;;;4998184;28;20217;-63
2022/10/13 12:04:36;;;;;;;11.50;6.03;;;;;;;;;;5003910;28;21099;-64
2022/10/13 12:07:02;;;;;;;16.35;7.28;;;;;;;;;;5002424;28;20223;-66
2022/10/13 12:09:28;;;;;;;11.13;6.25;;;;;;;;;;5001416;28;20212;-67
2022/10/13 12:11:55;;;;;;;18.00;10.25;;;;;;;;;;5002847;28;20286;-63
2022/10/13 12:14:21;;;;;;;22.13;11.98;;;;;;;;;;5001600;28;20216;-63
2022/10/13 12:16:52;;;;;;;23.23;12.48;;;;;;;;;;5002484;28;20211;-65
2022/10/13 12:19:18;;;;;;;19.45;13.20;;;;;;;;;;4995951;28;20223;-64
2022/10/13 12:21:50;;;;;;;20.95;12.30;;;;;;;;;;4995680;28;20686;-64
2022/10/13 12:24:16;;;;;;;21.77;14.07;;;;;;;;;;4996618;28;20212;-63
2022/10/13 12:26:41;;;;;;;19.10;12.88;;;;;;;;;;5002234;28;20262;-64
2022/10/13 12:29:10;;;;;;;23.88;14.20;;;;;;;;;;5000801;28;20270;-64
2022/10/13 12:31:40;;;;;;;19.17;13.35;;;;;;;;;;5002519;28;20255;-64
2022/10/13 12:34:12;;;;;;;20.88;13.05;;;;;;;;;;5001723;28;20222;-64
2022/10/13 12:36:37;;;;;;;20.00;13.18;;;;;;;;;;5001246;28;20211;-64
2022/10/13 12:39:04;;;;;;;19.35;12.80;;;;;;;;;;5000504;28;20220;-64
2022/10/13 12:41:30;;;;;;;20.85;13.27;;;;;;;;;;4996239;28;20205;-66
2022/10/13 12:43:56;;;;;;;19.67;14.18;;;;;;;;;;4996175;28;21069;-64
2022/10/13 12:46:36;;;;;;;24.42;13.23;;;;;;;;;;4992414;28;20212;-64
2022/10/13 12:49:06;;;;;;;24.70;14.50;;;;;;;;;;4995193;28;20220;-64
2022/10/13 12:51:33;;;;;;;20.67;13.55;;;;;;;;;;4996677;28;20232;-64
2022/10/13 12:54:03;;;;;;;21.40;13.88;;;;;;;;;;4998966;28;20252;-64
2022/10/13 12:56:29;;;;;;;24.60;14.13;;;;;;;;;;4999361;28;20731;-64
2022/10/13 12:58:55;;;;;;;21.50;13.60;;;;;;;;;;5001688;28;20213;-65
2022/10/13 13:01:25;;;;;;;22.88;14.73;;;;;;;;;;5000519;28;20236;-66
2022/10/13 13:03:56;;;;;;;22.73;14.20;;;;;;;;;;4996514;28;20208;-64
2022/10/13 13:06:22;;;;;;;23.38;14.77;;;;;;;;;;4995528;28;20263;-64
2022/10/13 13:09:05;;;;;;;21.90;14.40;;;;;;;;;;4994886;28;20284;-66
2022/10/13 13:11:32;;;;;;;20.85;12.13;;;;;;;;;;5000798;28;20224;-65
2022/10/13 13:14:16;;;;;;;20.45;12.07;;;;;;;;;;5002860;28;20208;-66
2022/10/13 13:16:41;;;;;;;21.77;12.60;;;;;;;;;;5001527;28;20275;-66
2022/10/13 13:19:19;;;;;;;18.27;12.00;;;;;;;;;;5000714;28;20216;-67
2022/10/13 13:21:45;;;;;;;20.45;12.00;;;;;;;;;;5001444;28;20942;-67
2022/10/13 13:24:10;;;;;;;20.67;12.00;;;;;;;;;;5001421;28;20222;-66
2022/10/13 13:26:35;;;;;;;19.75;11.90;;;;;;;;;;4997465;28;20208;-65
2022/10/13 13:29:01;;;;;;;21.40;13.32;;;;;;;;;;4995558;28;20228;-67
2022/10/13 13:31:26;;;;;;;17.55;11.25;;;;;;;;;;4996035;28;20226;-65
2022/10/13 13:33:51;;;;;;;19.52;12.48;;;;;;;;;;5000113;28;20621;-64
2022/10/13 13:36:18;;;;;;;21.58;12.77;;;;;;;;;;5002114;28;20212;-65
2022/10/13 13:38:43;;;;;;;18.63;12.07;;;;;;;;;;5000372;28;20299;-65
2022/10/13 13:41:09;;;;;;;21.13;11.55;;;;;;;;;;5002067;28;20327;-65
2022/10/13 13:43:34;;;;;;;14.93;11.02;;;;;;;;;;5000905;28;20830;-65
2022/10/13 13:45:59;;;;;;;18.42;11.80;;;;;;;;;;5001795;28;21227;-65
2022/10/13 13:48:25;;;;;;;18.15;12.40;;;;;;;;;;4998679;28;20211;-65
2022/10/13 13:50:50;;;;;;;20.10;12.05;;;;;;;;;;4994910;28;20274;-65
2022/10/13 13:53:16;;;;;;;18.52;12.48;;;;;;;;;;4995606;28;20213;-65
2022/10/13 13:55:42;;;;;;;18.23;11.43;;;;;;;;;;5001630;28;20216;-65
2022/10/13 13:58:08;;;;;;;20.80;11.93;;;;;;;;;;5003309;28;20293;-65
2022/10/13 14:00:33;;;;;;;21.27;12.93;;;;;;;;;;5005071;28;21144;-65
2022/10/13 14:02:58;;;;;;;19.45;12.88;;;;;;;;;;5005618;28;20216;-65
2022/10/13 14:05:24;;;;;;;18.75;12.50;;;;;;;;;;5004059;28;20243;-65
2022/10/13 14:07:51;;;;;;;21.30;13.02;;;;;;;;;;5005070;28;20216;-65
2022/10/13 14:10:16;;;;;;;22.13;12.63;;;;;;;;;;5005256;28;20363;-65
2022/10/13 14:12:42;;;;;;;18.87;13.77;;;;;;;;;;4997708;28;20435;-65
2022/10/13 14:15:07;;;;;;;22.17;13.68;;;;;;;;;;4998232;28;20216;-65
2022/10/13 14:17:33;;;;;;;25.33;14.30;;;;;;;;;;5000185;28;20266;-65
2022/10/13 14:19:58;;;;;;;19.67;12.82;;;;;;;;;;5004363;28;20299;-65